Kavala/Chrysoupoli International Airport

Airport
ICAO code: 
LGKV
IATA Code: 
KVA
Summary
ICAO Region: 
EUR
Territory: 
Location: 
Chrysoupoli, Eastern Macedonia and Thrace
Serving: 
Kavala
Elevation: 
18 ft
Coordinates: 
Aerial View: 
39° 36' 6.998" N, 19° 54' 43.999" E
Metar
Observation
LGKV 200950Z 26005KT CAVOK 11/03 Q1023
Station
Chrysoupoli Airport
Date/Time
2022-01-20 09:50:00
Wind direction
260°
Wind speed
05 kts
Lowest cloud amount
clouds and visibility OK
Temperature
11°C
Dew point
3°C
Humidity
57%
QNH
1023 hPa
Weather condition
n/a

Description

Kavala International Airport "Alexander the Great" is an airport located in the municipality of Nestos, in Greece.

Climatology

Mediterranean climate (Köppen climate classification Csa) - Hot, dry summer and a mild wet winter.

Runways

Designator Length Width Surface Rops
05R/23L 3000 45 ASP Yes/Yes
Airport map: 
Aerial View: 

SKYbrary Partners:

Safety knowledge contributed by: